Time,TemperatureF,DewpointF,PressureIn,WindDirection,WindDirectionDegrees,WindSpeedMPH,WindSpeedGustMPH,Humidity,HourlyPrecipIn,Conditions,Clouds,dailyrainin,SoftwareType,DateUTC
2013-03-03 00:00:00,53.5,25.8,30.01,SE,141,1.0,6.0,34,0.00,,---,0.00,VWS V14.01,2013-03-03 08:00:00,
2013-03-03 00:05:00,53.7,26.0,30.01,SE,136,1.0,6.0,34,0.00,,---,0.00,VWS V14.01,2013-03-03 08:05:00,
2013-03-03 00:10:00,53.7,25.3,30.01,SE,127,2.0,6.0,33,0.00,,---,0.00,VWS V14.01,2013-03-03 08:10:00,
2013-03-03 00:15:00,53.7,25.3,30.00,SE,136,2.0,6.0,33,0.00,,---,0.00,VWS V14.01,2013-03-03 08:15:00,
2013-03-03 00:20:00,53.7,25.3,30.00,SE,135,1.0,6.0,33,0.00,,---,0.00,VWS V14.01,2013-03-03 08:20:00,
2013-03-03 00:25:00,53.6,25.2,30.01,South,170,1.0,6.0,33,0.00,,---,0.00,VWS V14.01,2013-03-03 08:25:00,
2013-03-03 00:30:00,53.2,26.3,30.01,SSW,200,0.0,6.0,35,0.00,,---,0.00,VWS V14.01,2013-03-03 08:30:00,
2013-03-03 00:35:00,52.6,25.8,30.01,SSW,200,0.0,6.0,35,0.00,,---,0.00,VWS V14.01,2013-03-03 08:35:00,
2013-03-03 00:40:00,52.0,26.5,30.01,SSW,200,0.0,6.0,37,0.00,,---,0.00,VWS V14.01,2013-03-03 08:40:00,
2013-03-03 00:45:00,51.2,27.1,30.01,SSW,200,0.0,6.0,39,0.00,,---,0.00,VWS V14.01,2013-03-03 08:45:00,
2013-03-03 00:50:00,50.5,26.5,30.01,SSW,200,0.0,6.0,39,0.00,,---,0.00,VWS V14.01,2013-03-03 08:50:00,
2013-03-03 00:55:00,50.1,27.3,30.01,SSW,200,0.0,6.0,41,0.00,,---,0.00,VWS V14.01,2013-03-03 08:55:00,
2013-03-03 01:00:00,49.6,27.5,30.01,SSW,200,0.0,6.0,42,0.00,,---,0.00,VWS V14.01,2013-03-03 09:00:00,
2013-03-03 01:05:00,49.5,26.8,30.01,ESE,122,3.0,6.0,41,0.00,,---,0.00,VWS V14.01,2013-03-03 09:05:00,
2013-03-03 01:10:00,50.6,27.2,30.01,ESE,120,1.0,6.0,40,0.00,,---,0.00,VWS V14.01,2013-03-03 09:10:00,
2013-03-03 01:15:00,51.1,27.0,30.00,SE,146,1.0,6.0,39,0.00,,---,0.00,VWS V14.01,2013-03-03 09:15:00,
2013-03-03 01:20:00,51.0,26.9,30.01,ESE,108,1.0,6.0,39,0.00,,---,0.00,VWS V14.01,2013-03-03 09:20:00,
2013-03-03 01:25:00,51.2,26.5,30.00,ESE,114,4.0,6.0,38,0.00,,---,0.00,VWS V14.01,2013-03-03 09:25:00,
2013-03-03 01:30:00,51.4,26.0,30.00,ESE,119,2.0,6.0,37,0.00,,---,0.00,VWS V14.01,2013-03-03 09:30:00,
2013-03-03 01:35:00,51.2,26.5,30.00,SE,131,0.0,6.0,38,0.00,,---,0.00,VWS V14.01,2013-03-03 09:35:00,
2013-03-03 01:40:00,51.0,26.3,30.00,SE,134,1.0,6.0,38,0.00,,---,0.00,VWS V14.01,2013-03-03 09:40:00,
2013-03-03 01:45:00,50.5,26.5,30.00,SE,131,0.0,6.0,39,0.00,,---,0.00,VWS V14.01,2013-03-03 09:45:00,
2013-03-03 01:50:00,50.4,26.4,30.00,ESE,117,1.0,6.0,39,0.00,,---,0.00,VWS V14.01,2013-03-03 09:50:00,
2013-03-03 01:54:00,50.6,26.0,30.00,ESE,119,1.0,6.0,38,0.00,,---,0.00,VWS V14.01,2013-03-03 09:54:00,
2013-03-03 01:59:00,50.8,26.1,29.99,ESE,122,2.0,6.0,38,0.00,,---,0.00,VWS V14.01,2013-03-03 09:59:00,
2013-03-03 02:04:00,50.9,26.8,29.99,SE,124,1.0,4.0,39,0.00,,---,0.00,VWS V14.01,2013-03-03 10:04:00,
2013-03-03 02:09:00,51.0,26.3,29.99,ESE,110,2.0,4.0,38,0.00,,---,0.00,VWS V14.01,2013-03-03 10:09:00,
2013-03-03 02:14:00,50.9,26.8,29.99,ESE,117,1.0,4.0,39,0.00,,---,0.00,VWS V14.01,2013-03-03 10:14:00,
2013-03-03 02:19:00,50.6,26.6,30.00,ESE,120,0.0,4.0,39,0.00,,---,0.00,VWS V14.01,2013-03-03 10:19:00,
2013-03-03 02:24:00,50.1,26.1,30.00,ESE,120,0.0,4.0,39,0.00,,---,0.00,VWS V14.01,2013-03-03 10:24:00,
2013-03-03 02:29:00,50.0,27.2,30.00,ESE,118,1.0,4.0,41,0.00,,---,0.00,VWS V14.01,2013-03-03 10:29:00,
2013-03-03 02:34:00,50.0,27.2,30.00,ESE,117,2.0,4.0,41,0.00,,---,0.00,VWS V14.01,2013-03-03 10:34:00,
2013-03-03 02:39:00,50.5,27.1,30.00,ESE,115,2.0,4.0,40,0.00,,---,0.00,VWS V14.01,2013-03-03 10:39:00,
2013-03-03 02:44:00,50.8,26.8,29.99,ESE,121,2.0,4.0,39,0.00,,---,0.00,VWS V14.01,2013-03-03 10:44:00,
2013-03-03 02:49:00,50.6,27.2,29.99,East,97,2.0,4.0,40,0.00,,---,0.00,VWS V14.01,2013-03-03 10:49:00,
2013-03-03 02:54:00,50.7,26.7,29.99,ESE,122,1.0,4.0,39,0.00,,---,0.00,VWS V14.01,2013-03-03 10:54:00,
2013-03-03 02:59:00,50.9,26.8,29.98,ESE,112,2.0,5.0,39,0.00,,---,0.00,VWS V14.01,2013-03-03 10:59:00,
2013-03-03 03:00:00,52.1,27.9,29.98,ESE,110,2.0,5.0,39,0.00,,---,0.00,VWS V14.01,2013-03-03 11:00:00,
2013-03-03 03:04:00,51.3,26.6,29.98,SE,124,3.0,5.0,38,0.00,,---,0.00,VWS V14.01,2013-03-03 11:04:00,
2013-03-03 03:09:00,51.3,26.6,29.98,SE,141,2.0,5.0,38,0.00,,---,0.00,VWS V14.01,2013-03-03 11:09:00,
2013-03-03 03:14:00,51.2,26.5,29.98,ESE,119,0.0,5.0,38,0.00,,---,0.00,VWS V14.01,2013-03-03 11:14:00,
2013-03-03 03:19:00,51.0,26.9,29.99,ESE,109,0.0,5.0,39,0.00,,---,0.00,VWS V14.01,2013-03-03 11:19:00,
2013-03-03 03:24:00,50.8,26.8,29.99,SE,125,2.0,5.0,39,0.00,,---,0.00,VWS V14.01,2013-03-03 11:24:00,
2013-03-03 03:29:00,50.6,27.2,29.99,ESE,122,0.0,5.0,40,0.00,,---,0.00,VWS V14.01,2013-03-03 11:29:00,
2013-03-03 03:34:00,50.1,27.3,29.99,ESE,122,0.0,5.0,41,0.00,,---,0.00,VWS V14.01,2013-03-03 11:34:00,
2013-03-03 03:39:00,49.9,27.7,29.99,ESE,119,1.0,5.0,42,0.00,,---,0.00,VWS V14.01,2013-03-03 11:39:00,
2013-03-03 03:44:00,50.1,27.9,30.00,SE,136,0.0,5.0,42,0.00,,---,0.00,VWS V14.01,2013-03-03 11:44:00,
2013-03-03 03:49:00,50.3,28.1,29.99,ESE,117,1.0,5.0,42,0.00,,---,0.00,VWS V14.01,2013-03-03 11:49:00,
2013-03-03 03:54:00,50.9,28.1,30.00,SE,136,1.0,5.0,41,0.00,,---,0.00,VWS V14.01,2013-03-03 11:54:00,
2013-03-03 03:59:00,51.7,27.6,29.99,East,86,1.0,5.0,39,0.00,,---,0.00,VWS V14.01,2013-03-03 11:59:00,
2013-03-03 04:04:00,52.6,27.1,29.96,ENE,73,5.0,7.0,37,0.00,,---,0.00,VWS V14.01,2013-03-03 12:04:00,
2013-03-03 04:09:00,52.8,29.2,29.95,ESE,102,5.0,13.0,40,0.00,,---,0.00,VWS V14.01,2013-03-03 12:09:00,
2013-03-03 04:14:00,52.4,28.8,29.95,East,99,5.0,13.0,40,0.00,,---,0.00,VWS V14.01,2013-03-03 12:14:00,
2013-03-03 04:19:00,52.7,27.8,29.94,ENE,75,5.0,13.0,38,0.00,,---,0.00,VWS V14.01,2013-03-03 12:19:00,
2013-03-03 04:24:00,54.5,26.7,29.93,East,89,3.0,13.0,34,0.00,,---,0.00,VWS V14.01,2013-03-03 12:24:00,
2013-03-03 04:29:00,55.7,27.8,29.93,SE,128,4.0,13.0,34,0.00,,---,0.00,VWS V14.01,2013-03-03 12:29:00,
2013-03-03 04:34:00,55.8,27.9,29.93,ESE,110,2.0,13.0,34,0.00,,---,0.00,VWS V14.01,2013-03-03 12:34:00,
2013-03-03 04:39:00,57.1,27.5,29.93,East,100,2.0,13.0,32,0.00,,---,0.00,VWS V14.01,2013-03-03 12:39:00,
2013-03-03 04:44:00,58.4,26.3,29.93,East,94,3.0,13.0,29,0.00,,---,0.00,VWS V14.01,2013-03-03 12:44:00,
2013-03-03 04:49:00,59.7,25.7,29.92,East,101,2.0,13.0,27,0.00,,---,0.00,VWS V14.01,2013-03-03 12:49:00,
2013-03-03 04:54:00,60.3,27.1,29.92,SE,132,2.0,13.0,28,0.00,,---,0.00,VWS V14.01,2013-03-03 12:54:00,
2013-03-03 04:59:00,59.5,27.2,29.92,SE,131,1.0,13.0,29,0.00,,---,0.00,VWS V14.01,2013-03-03 12:59:00,
2013-03-03 05:00:00,52.8,28.5,29.95,SSW,205,0.0,13.0,39,0.00,,---,0.00,VWS V14.01,2013-03-03 13:00:00,
2013-03-03 05:04:00,58.6,28.1,29.92,SW,233,1.0,13.0,31,0.00,,---,0.00,VWS V14.01,2013-03-03 13:04:00,
2013-03-03 05:09:00,56.9,28.1,29.93,NNE,30,0.0,13.0,33,0.00,,---,0.00,VWS V14.01,2013-03-03 13:09:00,
2013-03-03 05:14:00,56.2,27.5,29.94,West,266,3.0,13.0,33,0.00,,---,0.00,VWS V14.01,2013-03-03 13:14:00,
2013-03-03 05:19:00,55.1,29.3,29.93,ESE,113,2.0,13.0,37,0.00,,---,0.00,VWS V14.01,2013-03-03 13:19:00,
2013-03-03 05:24:00,54.2,29.8,29.94,SSW,211,3.0,13.0,39,0.00,,---,0.00,VWS V14.01,2013-03-03 13:24:00,
2013-03-03 05:29:00,53.6,29.9,29.94,SSW,210,0.0,13.0,40,0.00,,---,0.00,VWS V14.01,2013-03-03 13:29:00,
2013-03-03 05:34:00,53.2,30.1,29.94,SSW,210,0.0,13.0,41,0.00,,---,0.00,VWS V14.01,2013-03-03 13:34:00,
2013-03-03 05:39:00,52.9,29.2,29.94,SSW,210,0.0,13.0,40,0.00,,---,0.00,VWS V14.01,2013-03-03 13:39:00,
2013-03-03 05:44:00,52.6,30.2,29.94,SSW,210,0.0,13.0,42,0.00,,---,0.00,VWS V14.01,2013-03-03 13:44:00,
2013-03-03 05:49:00,52.4,28.8,29.95,SSW,205,0.0,13.0,40,0.00,,---,0.00,VWS V14.01,2013-03-03 13:49:00,
2013-03-03 05:54:00,52.5,28.3,29.95,SSW,205,0.0,13.0,39,0.00,,---,0.00,VWS V14.01,2013-03-03 13:54:00,
2013-03-03 05:59:00,52.9,28.6,29.95,SSW,206,0.0,13.0,39,0.00,,---,0.00,VWS V14.01,2013-03-03 13:59:00,
2013-03-03 06:04:00,52.8,28.5,29.96,SSW,207,0.0,1.0,39,0.00,,---,0.00,VWS V14.01,2013-03-03 14:04:00,
2013-03-03 06:09:00,53.1,28.2,29.96,NW,312,2.0,2.0,38,0.00,,---,0.00,VWS V14.01,2013-03-03 14:09:00,
2013-03-03 06:14:00,52.9,28.6,29.96,NW,309,1.0,3.0,39,0.00,,---,0.00,VWS V14.01,2013-03-03 14:14:00,
2013-03-03 06:19:00,52.3,28.7,29.96,NNE,22,3.0,3.0,40,0.00,,---,0.00,VWS V14.01,2013-03-03 14:19:00,
2013-03-03 06:24:00,52.3,28.7,29.97,NNW,347,1.0,3.0,40,0.00,,---,0.00,VWS V14.01,2013-03-03 14:24:00,
2013-03-03 06:29:00,52.1,29.1,29.98,ESE,103,0.0,3.0,41,0.00,,---,0.00,VWS V14.01,2013-03-03 14:29:00,
2013-03-03 06:34:00,51.9,29.5,29.98,ESE,103,1.0,3.0,42,0.00,,---,0.00,VWS V14.01,2013-03-03 14:34:00,
2013-03-03 06:39:00,51.7,30.5,29.98,East,89,2.0,4.0,44,0.00,,---,0.00,VWS V14.01,2013-03-03 14:39:00,
2013-03-03 06:44:00,51.6,30.4,29.98,East,90,0.0,4.0,44,0.00,,---,0.00,VWS V14.01,2013-03-03 14:44:00,
2013-03-03 06:49:00,51.7,31.1,29.99,East,91,0.0,4.0,45,0.00,,---,0.00,VWS V14.01,2013-03-03 14:49:00,
2013-03-03 06:54:00,52.2,31.0,29.99,East,99,2.0,4.0,44,0.00,,---,0.00,VWS V14.01,2013-03-03 14:54:00,
2013-03-03 06:59:00,52.7,30.9,29.98,East,101,2.0,4.0,43,0.00,,---,0.00,VWS V14.01,2013-03-03 14:59:00,
2013-03-03 07:00:00,61.8,30.9,29.98,ESE,116,0.0,5.0,31,0.00,,---,0.00,VWS V14.01,2013-03-03 15:00:00,
2013-03-03 07:04:00,53.7,31.2,29.98,ESE,113,2.0,5.0,42,0.00,,---,0.00,VWS V14.01,2013-03-03 15:04:00,
2013-03-03 07:09:00,54.4,31.2,29.98,ENE,73,4.0,5.0,41,0.00,,---,0.00,VWS V14.01,2013-03-03 15:09:00,
2013-03-03 07:14:00,55.4,30.9,29.99,East,99,2.0,5.0,39,0.00,,---,0.00,VWS V14.01,2013-03-03 15:14:00,
2013-03-03 07:19:00,56.4,31.1,29.98,East,81,2.0,5.0,38,0.00,,---,0.00,VWS V14.01,2013-03-03 15:19:00,
2013-03-03 07:24:00,57.2,29.8,29.98,ESE,106,2.0,5.0,35,0.00,,---,0.00,VWS V14.01,2013-03-03 15:24:00,
2013-03-03 07:29:00,58.3,30.1,29.99,ESE,110,1.0,5.0,34,0.00,,---,0.00,VWS V14.01,2013-03-03 15:29:00,
2013-03-03 07:34:00,59.3,30.2,29.98,ENE,77,2.0,5.0,33,0.00,,---,0.00,VWS V14.01,2013-03-03 15:34:00,
2013-03-03 07:39:00,60.3,30.3,29.98,East,79,2.0,5.0,32,0.00,,---,0.00,VWS V14.01,2013-03-03 15:39:00,
2013-03-03 07:44:00,61.2,29.5,29.98,ENE,78,2.0,5.0,30,0.00,,---,0.00,VWS V14.01,2013-03-03 15:44:00,
2013-03-03 07:49:00,61.8,28.4,29.98,ESE,107,2.0,5.0,28,0.00,,---,0.00,VWS V14.01,2013-03-03 15:49:00,
2013-03-03 07:54:00,61.8,29.2,29.98,East,92,2.0,5.0,29,0.00,,---,0.00,VWS V14.01,2013-03-03 15:54:00,
2013-03-03 07:59:00,61.7,30.0,29.98,East,96,2.0,5.0,30,0.00,,---,0.00,VWS V14.01,2013-03-03 15:59:00,
2013-03-03 08:04:00,61.9,30.1,29.98,SSE,161,0.0,1.0,30,0.00,,---,0.00,VWS V14.01,2013-03-03 16:04:00,
2013-03-03 08:09:00,62.3,31.3,29.99,SSE,159,1.0,1.0,31,0.00,,---,0.00,VWS V14.01,2013-03-03 16:09:00,
2013-03-03 08:14:00,62.5,30.7,29.98,SSE,160,0.0,1.0,30,0.00,,---,0.00,VWS V14.01,2013-03-03 16:14:00,
2013-03-03 08:19:00,63.0,30.3,29.98,SSE,160,1.0,1.0,29,0.00,,---,0.00,VWS V14.01,2013-03-03 16:19:00,
2013-03-03 08:24:00,63.4,31.5,29.98,SSE,160,0.0,1.0,30,0.00,,---,0.00,VWS V14.01,2013-03-03 16:24:00,
2013-03-03 08:29:00,63.8,31.8,29.98,SSE,159,0.0,1.0,30,0.00,,---,0.00,VWS V14.01,2013-03-03 16:29:00,
2013-03-03 08:34:00,63.9,30.2,29.98,NE,39,2.0,2.0,28,0.00,,---,0.00,VWS V14.01,2013-03-03 16:34:00,
2013-03-03 08:39:00,64.1,31.2,29.98,WNW,294,1.0,3.0,29,0.00,,---,0.00,VWS V14.01,2013-03-03 16:39:00,
2013-03-03 08:44:00,64.4,29.7,29.98,NE,44,0.0,3.0,27,0.00,,---,0.00,VWS V14.01,2013-03-03 16:44:00,
2013-03-03 08:49:00,64.8,29.1,29.98,NE,49,0.0,3.0,26,0.00,,---,0.00,VWS V14.01,2013-03-03 16:49:00,
2013-03-03 08:54:00,65.2,29.5,29.98,SW,236,2.0,4.0,26,0.00,,---,0.00,VWS V14.01,2013-03-03 16:54:00,
2013-03-03 08:59:00,65.2,29.5,29.97,SSW,194,1.0,4.0,26,0.00,,---,0.00,VWS V14.01,2013-03-03 16:59:00,
2013-03-03 09:00:00,69.3,26.5,29.96,SE,134,1.0,7.0,20,0.00,,---,0.00,VWS V14.01,2013-03-03 17:00:00,
2013-03-03 09:04:00,65.4,27.7,29.97,West,266,1.0,6.0,24,0.00,,---,0.00,VWS V14.01,2013-03-03 17:04:00,
2013-03-03 09:09:00,65.7,29.0,29.98,SSW,206,3.0,6.0,25,0.00,,---,0.00,VWS V14.01,2013-03-03 17:09:00,
2013-03-03 09:13:00,65.9,28.1,29.98,WNW,285,2.0,6.0,24,0.00,,---,0.00,VWS V14.01,2013-03-03 17:13:00,
2013-03-03 09:18:00,66.1,29.3,29.98,NW,312,2.0,6.0,25,0.00,,---,0.00,VWS V14.01,2013-03-03 17:18:00,
2013-03-03 09:23:00,66.8,29.9,29.97,SW,219,2.0,6.0,25,0.00,,---,0.00,VWS V14.01,2013-03-03 17:23:00,
2013-03-03 09:28:00,67.4,28.4,29.97,NW,307,0.0,6.0,23,0.00,,---,0.00,VWS V14.01,2013-03-03 17:28:00,
2013-03-03 09:33:00,67.7,29.6,29.96,WSW,252,1.0,6.0,24,0.00,,---,0.00,VWS V14.01,2013-03-03 17:33:00,
2013-03-03 09:38:00,68.2,30.1,29.96,SE,140,1.0,6.0,24,0.00,,---,0.00,VWS V14.01,2013-03-03 17:38:00,
2013-03-03 09:43:00,68.4,27.0,29.96,SSW,204,2.0,7.0,21,0.00,,---,0.00,VWS V14.01,2013-03-03 17:43:00,
2013-03-03 09:48:00,68.7,27.2,29.97,West,259,0.0,7.0,21,0.00,,---,0.00,VWS V14.01,2013-03-03 17:48:00,
2013-03-03 09:53:00,69.0,28.6,29.97,WNW,302,4.0,7.0,22,0.00,,---,0.00,VWS V14.01,2013-03-03 17:53:00,
2013-03-03 09:58:00,69.4,26.6,29.96,West,259,1.0,7.0,20,0.00,,---,0.00,VWS V14.01,2013-03-03 17:58:00,
2013-03-03 10:03:00,69.2,27.6,29.96,East,95,0.0,3.0,21,0.00,,---,0.00,VWS V14.01,2013-03-03 18:03:00,
2013-03-03 10:08:00,69.4,27.8,29.96,NW,313,2.0,4.0,21,0.00,,---,0.00,VWS V14.01,2013-03-03 18:08:00,
2013-03-03 10:13:00,69.8,30.4,29.97,WNW,294,3.0,5.0,23,0.00,,---,0.00,VWS V14.01,2013-03-03 18:13:00,
2013-03-03 10:18:00,70.1,29.5,29.97,WNW,303,5.0,11.0,22,0.00,,---,0.00,VWS V14.01,2013-03-03 18:18:00,
2013-03-03 10:23:00,69.9,29.4,29.97,WNW,285,3.0,11.0,22,0.00,,---,0.00,VWS V14.01,2013-03-03 18:23:00,
2013-03-03 10:28:00,69.4,28.9,29.96,NW,306,2.0,11.0,22,0.00,,---,0.00,VWS V14.01,2013-03-03 18:28:00,
2013-03-03 10:33:00,69.5,27.9,29.96,NW,315,4.0,11.0,21,0.00,,---,0.00,VWS V14.01,2013-03-03 18:33:00,
2013-03-03 10:38:00,69.1,28.7,29.96,WNW,287,1.0,11.0,22,0.00,,---,0.00,VWS V14.01,2013-03-03 18:38:00,
2013-03-03 10:43:00,69.0,28.6,29.96,West,281,0.0,11.0,22,0.00,,---,0.00,VWS V14.01,2013-03-03 18:43:00,
2013-03-03 10:48:00,69.4,31.1,29.96,West,259,1.0,11.0,24,0.00,,---,0.00,VWS V14.01,2013-03-03 18:48:00,
2013-03-03 10:53:00,69.6,28.0,29.96,SW,221,1.0,11.0,21,0.00,,---,0.00,VWS V14.01,2013-03-03 18:53:00,
2013-03-03 10:58:00,69.5,29.0,29.96,West,277,1.0,11.0,22,0.00,,---,0.00,VWS V14.01,2013-03-03 18:58:00,
2013-03-03 11:03:00,69.5,29.0,29.96,West,273,1.0,11.0,22,0.00,,---,0.00,VWS V14.01,2013-03-03 19:03:00,
2013-03-03 11:08:00,69.6,29.1,29.95,WNW,295,5.0,11.0,22,0.00,,---,0.00,VWS V14.01,2013-03-03 19:08:00,
2013-03-03 11:13:00,69.8,29.3,29.96,WNW,284,1.0,11.0,22,0.00,,---,0.00,VWS V14.01,2013-03-03 19:13:00,
2013-03-03 11:18:00,70.1,29.5,29.95,West,277,2.0,11.0,22,0.00,,---,0.00,VWS V14.01,2013-03-03 19:18:00,
2013-03-03 11:23:00,69.6,28.0,29.95,West,266,3.0,11.0,21,0.00,,---,0.00,VWS V14.01,2013-03-03 19:23:00,
2013-03-03 11:28:00,69.2,27.6,29.96,West,271,1.0,11.0,21,0.00,,---,0.00,VWS V14.01,2013-03-03 19:28:00,
2013-03-03 12:15:00,70.7,30.0,29.93,SW,233,4.0,4.0,22,0.00,,---,0.00,VWS V14.01,2013-03-03 20:15:00,
2013-03-03 12:20:00,70.4,29.8,29.92,SSE,150,3.0,8.0,22,0.00,,---,0.00,VWS V14.01,2013-03-03 20:20:00,
2013-03-03 12:25:00,70.5,31.0,29.92,SSW,200,6.0,8.0,23,0.00,,---,0.00,VWS V14.01,2013-03-03 20:25:00,
2013-03-03 12:30:00,70.1,29.5,29.92,WSW,249,4.0,9.0,22,0.00,,---,0.00,VWS V14.01,2013-03-03 20:30:00,
2013-03-03 12:35:00,69.7,29.2,29.91,SW,233,3.0,9.0,22,0.00,,---,0.00,VWS V14.01,2013-03-03 20:35:00,
2013-03-03 12:40:00,69.5,29.0,29.91,WSW,248,3.0,9.0,22,0.00,,---,0.00,VWS V14.01,2013-03-03 20:40:00,
2013-03-03 12:45:00,69.6,29.1,29.91,SW,232,2.0,9.0,22,0.00,,---,0.00,VWS V14.01,2013-03-03 20:45:00,
2013-03-03 12:50:00,70.0,28.3,29.90,SW,229,5.0,9.0,21,0.00,,---,0.00,VWS V14.01,2013-03-03 20:50:00,
2013-03-03 12:55:00,70.2,29.6,29.90,West,281,3.0,11.0,22,0.00,,---,0.00,VWS V14.01,2013-03-03 20:55:00,
2013-03-03 13:00:00,69.9,29.4,29.90,WSW,246,6.0,11.0,22,0.00,,---,0.00,VWS V14.01,2013-03-03 21:00:00,
2013-03-03 13:05:00,70.0,29.4,29.90,WSW,255,6.0,11.0,22,0.00,,---,0.00,VWS V14.01,2013-03-03 21:05:00,
2013-03-03 13:10:00,70.1,29.5,29.90,SSW,200,3.0,11.0,22,0.00,,---,0.00,VWS V14.01,2013-03-03 21:10:00,
2013-03-03 13:15:00,70.5,28.7,29.89,SSW,200,6.0,11.0,21,0.00,,---,0.00,VWS V14.01,2013-03-03 21:15:00,
2013-03-03 13:20:00,70.4,29.8,29.89,SW,214,3.0,11.0,22,0.00,,---,0.00,VWS V14.01,2013-03-03 21:20:00,
2013-03-03 13:25:00,70.3,29.7,29.89,SW,218,1.0,11.0,22,0.00,,---,0.00,VWS V14.01,2013-03-03 21:25:00,
2013-03-03 13:30:00,70.5,29.9,29.89,WSW,243,4.0,11.0,22,0.00,,---,0.00,VWS V14.01,2013-03-03 21:30:00,
2013-03-03 13:35:00,70.4,28.6,29.89,SW,219,10.0,11.0,21,0.00,,---,0.00,VWS V14.01,2013-03-03 21:35:00,
2013-03-03 13:40:00,70.2,29.6,29.89,SW,236,4.0,11.0,22,0.00,,---,0.00,VWS V14.01,2013-03-03 21:40:00,
2013-03-03 13:45:00,70.1,28.4,29.89,WSW,252,7.0,11.0,21,0.00,,---,0.00,VWS V14.01,2013-03-03 21:45:00,
2013-03-03 13:50:00,70.2,27.3,29.89,SW,232,3.0,11.0,20,0.00,,---,0.00,VWS V14.01,2013-03-03 21:50:00,
2013-03-03 13:55:00,70.4,27.5,29.89,WSW,252,5.0,12.0,20,0.00,,---,0.00,VWS V14.01,2013-03-03 21:55:00,
2013-03-03 14:00:00,70.5,27.5,29.88,SSW,196,4.0,12.0,20,0.00,,---,0.00,VWS V14.01,2013-03-03 22:00:00,
2013-03-03 14:05:00,70.5,27.5,29.89,WSW,242,1.0,10.0,20,0.00,,---,0.00,VWS V14.01,2013-03-03 22:05:00,
2013-03-03 14:10:00,70.5,28.7,29.89,SW,225,6.0,12.0,21,0.00,,---,0.00,VWS V14.01,2013-03-03 22:10:00,
2013-03-03 14:15:00,69.9,29.4,29.89,West,276,10.0,12.0,22,0.00,,---,0.00,VWS V14.01,2013-03-03 22:15:00,
2013-03-03 14:20:00,69.5,30.1,29.89,WSW,255,8.0,12.0,23,0.00,,---,0.00,VWS V14.01,2013-03-03 22:20:00,
2013-03-03 14:25:00,69.2,31.9,29.89,SW,229,8.0,12.0,25,0.00,,---,0.00,VWS V14.01,2013-03-03 22:25:00,
2013-03-03 14:30:00,69.0,31.8,29.89,SW,225,3.0,12.0,25,0.00,,---,0.00,VWS V14.01,2013-03-03 22:30:00,
2013-03-03 14:35:00,68.8,31.6,29.89,West,259,3.0,12.0,25,0.00,,---,0.00,VWS V14.01,2013-03-03 22:35:00,
2013-03-03 14:39:00,68.6,31.4,29.89,SSW,205,6.0,12.0,25,0.00,,---,0.00,VWS V14.01,2013-03-03 22:39:00,
2013-03-03 14:44:00,68.4,31.2,29.89,SW,216,8.0,12.0,25,0.00,,---,0.00,VWS V14.01,2013-03-03 22:44:00,
2013-03-03 14:49:00,68.3,31.1,29.88,SSE,147,6.0,12.0,25,0.00,,---,0.00,VWS V14.01,2013-03-03 22:49:00,
2013-03-03 14:54:00,68.5,31.3,29.88,West,259,5.0,12.0,25,0.00,,---,0.00,VWS V14.01,2013-03-03 22:54:00,
2013-03-03 14:59:00,68.3,31.1,29.88,SW,232,3.0,12.0,25,0.00,,---,0.00,VWS V14.01,2013-03-03 22:59:00,
2013-03-03 15:00:00,67.2,32.1,29.87,SSW,198,2.0,13.0,27,0.00,,---,0.00,VWS V14.01,2013-03-03 23:00:00,
2013-03-03 15:04:00,68.0,30.9,29.88,SW,218,7.0,12.0,25,0.00,,---,0.00,VWS V14.01,2013-03-03 23:04:00,
2013-03-03 15:09:00,67.6,29.6,29.88,WSW,253,5.0,12.0,24,0.00,,---,0.00,VWS V14.01,2013-03-03 23:09:00,
2013-03-03 15:14:00,67.4,30.4,29.88,WSW,253,6.0,12.0,25,0.00,,---,0.00,VWS V14.01,2013-03-03 23:14:00,
2013-03-03 15:19:00,67.3,30.3,29.88,WNW,288,5.0,12.0,25,0.00,,---,0.00,VWS V14.01,2013-03-03 23:19:00,
2013-03-03 15:24:00,67.4,32.3,29.88,West,264,5.0,12.0,27,0.00,,---,0.00,VWS V14.01,2013-03-03 23:24:00,
2013-03-03 15:29:00,67.5,31.4,29.88,West,259,4.0,12.0,26,0.00,,---,0.00,VWS V14.01,2013-03-03 23:29:00,
2013-03-03 15:34:00,67.5,31.4,29.88,SSW,203,6.0,12.0,26,0.00,,---,0.00,VWS V14.01,2013-03-03 23:34:00,
2013-03-03 15:39:00,67.5,31.4,29.88,SSE,161,5.0,12.0,26,0.00,,---,0.00,VWS V14.01,2013-03-03 23:39:00,
2013-03-03 15:44:00,67.5,32.4,29.88,WSW,243,10.0,12.0,27,0.00,,---,0.00,VWS V14.01,2013-03-03 23:44:00,
2013-03-03 15:49:00,67.5,31.4,29.87,SW,232,7.0,13.0,26,0.00,,---,0.00,VWS V14.01,2013-03-03 23:49:00,
2013-03-03 15:54:00,67.4,31.4,29.87,South,179,4.0,13.0,26,0.00,,---,0.00,VWS V14.01,2013-03-03 23:54:00,
2013-03-03 15:59:00,67.3,31.3,29.87,SW,221,3.0,13.0,26,0.00,,---,0.00,VWS V14.01,2013-03-03 23:59:00,
2013-03-03 16:04:00,67.2,32.1,29.87,SW,226,4.0,10.0,27,0.00,,---,0.00,VWS V14.01,2013-03-04 00:04:00,
2013-03-03 16:09:00,67.0,32.0,29.87,SW,215,13.0,13.0,27,0.00,,---,0.00,VWS V14.01,2013-03-04 00:09:00,
2013-03-03 16:14:00,66.7,31.7,29.87,SW,225,6.0,13.0,27,0.00,,---,0.00,VWS V14.01,2013-03-04 00:14:00,
2013-03-03 16:19:00,66.6,31.6,29.87,SW,235,10.0,13.0,27,0.00,,---,0.00,VWS V14.01,2013-03-04 00:19:00,
2013-03-03 16:24:00,66.5,31.5,29.88,SW,228,5.0,13.0,27,0.00,,---,0.00,VWS V14.01,2013-03-04 00:24:00,
2013-03-03 16:29:00,66.3,31.4,29.88,SW,235,8.0,13.0,27,0.00,,---,0.00,VWS V14.01,2013-03-04 00:29:00,
2013-03-03 16:34:00,66.0,31.1,29.87,SW,221,6.0,13.0,27,0.00,,---,0.00,VWS V14.01,2013-03-04 00:34:00,
2013-03-03 16:39:00,65.8,30.9,29.88,SW,215,9.0,14.0,27,0.00,,---,0.00,VWS V14.01,2013-03-04 00:39:00,
2013-03-03 16:44:00,65.7,31.7,29.88,WSW,248,6.0,14.0,28,0.00,,---,0.00,VWS V14.01,2013-03-04 00:44:00,
2013-03-03 16:49:00,65.7,32.6,29.88,SW,219,2.0,14.0,29,0.00,,---,0.00,VWS V14.01,2013-03-04 00:49:00,
2013-03-03 16:54:00,65.7,33.5,29.88,SW,232,4.0,14.0,30,0.00,,---,0.00,VWS V14.01,2013-03-04 00:54:00,
2013-03-03 16:59:00,65.5,33.3,29.88,SW,214,5.0,14.0,30,0.00,,---,0.00,VWS V14.01,2013-03-04 00:59:00,
2013-03-03 17:00:00,62.8,33.3,29.88,WSW,241,7.0,7.0,33,0.00,,---,0.00,VWS V14.01,2013-03-04 01:00:00,
2013-03-03 17:04:00,65.3,33.9,29.88,SSW,207,4.0,14.0,31,0.00,,---,0.00,VWS V14.01,2013-03-04 01:04:00,
2013-03-03 17:09:00,65.2,33.8,29.88,West,259,5.0,14.0,31,0.00,,---,0.00,VWS V14.01,2013-03-04 01:09:00,
2013-03-03 17:14:00,65.0,34.5,29.88,SW,224,6.0,14.0,32,0.00,,---,0.00,VWS V14.01,2013-03-04 01:14:00,
2013-03-03 17:19:00,64.7,34.2,29.88,SSE,165,2.0,14.0,32,0.00,,---,0.00,VWS V14.01,2013-03-04 01:19:00,
2013-03-03 17:24:00,64.3,33.8,29.88,SSW,208,5.0,14.0,32,0.00,,---,0.00,VWS V14.01,2013-03-04 01:24:00,
2013-03-03 17:29:00,64.0,34.3,29.88,SW,236,2.0,14.0,33,0.00,,---,0.00,VWS V14.01,2013-03-04 01:29:00,
2013-03-03 17:34:00,63.8,34.2,29.88,SW,223,5.0,14.0,33,0.00,,---,0.00,VWS V14.01,2013-03-04 01:34:00,
2013-03-03 17:39:00,63.5,33.1,29.88,SW,224,8.0,14.0,32,0.00,,---,0.00,VWS V14.01,2013-03-04 01:39:00,
2013-03-03 17:44:00,63.3,33.0,29.88,West,259,3.0,14.0,32,0.00,,---,0.00,VWS V14.01,2013-03-04 01:44:00,
2013-03-03 17:49:00,63.2,32.9,29.88,SW,215,2.0,14.0,32,0.00,,---,0.00,VWS V14.01,2013-03-04 01:49:00,
2013-03-03 17:54:00,63.0,32.7,29.88,SW,233,5.0,14.0,32,0.00,,---,0.00,VWS V14.01,2013-03-04 01:54:00,
2013-03-03 18:02:00,62.8,33.3,29.88,WSW,241,7.0,7.0,33,0.00,,---,0.00,VWS V14.01,2013-03-04 02:02:00,
2013-03-03 18:07:00,62.6,32.3,29.88,SW,227,4.0,10.0,32,0.00,,---,0.00,VWS V14.01,2013-03-04 02:07:00,
2013-03-03 18:12:00,62.5,33.0,29.88,SW,235,7.0,10.0,33,0.00,,---,0.00,VWS V14.01,2013-03-04 02:12:00,
2013-03-03 18:17:00,62.3,32.9,29.88,SW,217,2.0,10.0,33,0.00,,---,0.00,VWS V14.01,2013-03-04 02:17:00,
2013-03-03 18:22:00,62.2,32.8,29.89,SW,223,6.0,11.0,33,0.00,,---,0.00,VWS V14.01,2013-03-04 02:22:00,
2013-03-03 18:27:00,62.1,33.4,29.89,WSW,249,4.0,11.0,34,0.00,,---,0.00,VWS V14.01,2013-03-04 02:27:00,
2013-03-03 18:32:00,62.0,33.3,29.89,WSW,243,3.0,13.0,34,0.00,,---,0.00,VWS V14.01,2013-03-04 02:32:00,
2013-03-03 18:37:00,61.8,33.2,29.89,SW,231,5.0,13.0,34,0.00,,---,0.00,VWS V14.01,2013-03-04 02:37:00,
2013-03-03 18:42:00,61.6,33.7,29.88,WSW,245,4.0,13.0,35,0.00,,---,0.00,VWS V14.01,2013-03-04 02:42:00,
2013-03-03 18:47:00,61.4,33.5,29.88,SSW,212,8.0,13.0,35,0.00,,---,0.00,VWS V14.01,2013-03-04 02:47:00,
2013-03-03 18:52:00,61.3,33.4,29.88,SW,214,4.0,13.0,35,0.00,,---,0.00,VWS V14.01,2013-03-04 02:52:00,
2013-03-03 18:57:00,61.2,33.3,29.88,SSW,195,8.0,13.0,35,0.00,,---,0.00,VWS V14.01,2013-03-04 02:57:00,
2013-03-03 19:00:00,59.9,34.2,29.89,East,92,0.0,13.0,38,0.00,,---,0.00,VWS V14.01,2013-03-04 03:00:00,
2013-03-03 19:02:00,61.2,34.1,29.88,SW,233,8.0,13.0,36,0.00,,---,0.00,VWS V14.01,2013-03-04 03:02:00,
2013-03-03 19:07:00,61.1,34.0,29.88,SW,226,7.0,13.0,36,0.00,,---,0.00,VWS V14.01,2013-03-04 03:07:00,
2013-03-03 19:12:00,61.0,33.9,29.88,South,174,4.0,13.0,36,0.00,,---,0.00,VWS V14.01,2013-03-04 03:12:00,
2013-03-03 19:17:00,61.0,33.2,29.88,South,169,0.0,13.0,35,0.00,,---,0.00,VWS V14.01,2013-03-04 03:17:00,
2013-03-03 19:22:00,60.9,33.8,29.89,SSW,209,1.0,13.0,36,0.00,,---,0.00,VWS V14.01,2013-03-04 03:22:00,
2013-03-03 19:27:00,60.8,33.7,29.88,ESE,110,1.0,13.0,36,0.00,,---,0.00,VWS V14.01,2013-03-04 03:27:00,
2013-03-03 19:32:00,60.8,33.7,29.89,SE,141,2.0,13.0,36,0.00,,---,0.00,VWS V14.01,2013-03-04 03:32:00,
2013-03-03 19:37:00,60.7,33.6,29.89,East,97,3.0,13.0,36,0.00,,---,0.00,VWS V14.01,2013-03-04 03:37:00,
2013-03-03 19:42:00,60.5,34.1,29.89,WSW,238,1.0,13.0,37,0.00,,---,0.00,VWS V14.01,2013-03-04 03:42:00,
2013-03-03 19:47:00,60.4,34.0,29.89,SSE,162,1.0,13.0,37,0.00,,---,0.00,VWS V14.01,2013-03-04 03:47:00,
2013-03-03 19:52:00,60.3,33.9,29.89,SE,145,0.0,13.0,37,0.00,,---,0.00,VWS V14.01,2013-03-04 03:52:00,
2013-03-03 19:57:00,60.1,33.8,29.89,SW,235,0.0,13.0,37,0.00,,---,0.00,VWS V14.01,2013-03-04 03:57:00,
2013-03-03 20:02:00,59.9,34.2,29.89,East,92,1.0,13.0,38,0.00,,---,0.00,VWS V14.01,2013-03-04 04:02:00,
2013-03-03 20:07:00,59.6,34.6,29.89,SW,222,2.0,7.0,39,0.00,,---,0.00,VWS V14.01,2013-03-04 04:07:00,
2013-03-03 20:12:00,59.2,35.5,29.89,SW,222,0.0,7.0,41,0.00,,---,0.00,VWS V14.01,2013-03-04 04:12:00,
2013-03-03 20:17:00,58.8,35.8,29.89,WSW,252,0.0,7.0,42,0.00,,---,0.00,VWS V14.01,2013-03-04 04:17:00,
2013-03-03 20:22:00,58.4,35.4,29.89,SSW,203,4.0,7.0,42,0.00,,---,0.00,VWS V14.01,2013-03-04 04:22:00,
2013-03-03 20:27:00,58.1,35.2,29.90,SSE,150,1.0,7.0,42,0.00,,---,0.00,VWS V14.01,2013-03-04 04:27:00,
2013-03-03 20:32:00,57.7,36.0,29.90,NNW,332,3.0,7.0,44,0.00,,---,0.00,VWS V14.01,2013-03-04 04:32:00,
2013-03-03 20:37:00,57.4,35.7,29.90,WNW,302,1.0,7.0,44,0.00,,---,0.00,VWS V14.01,2013-03-04 04:37:00,
2013-03-03 20:42:00,57.2,35.5,29.90,NW,304,2.0,7.0,44,0.00,,---,0.00,VWS V14.01,2013-03-04 04:42:00,
2013-03-03 20:47:00,57.1,36.0,29.91,NNE,23,0.0,7.0,45,0.00,,---,0.00,VWS V14.01,2013-03-04 04:47:00,
2013-03-03 20:52:00,57.1,36.0,29.91,NNE,13,0.0,7.0,45,0.00,,---,0.00,VWS V14.01,2013-03-04 04:52:00,
2013-03-03 20:57:00,57.0,36.4,29.91,NW,308,4.0,7.0,46,0.00,,---,0.00,VWS V14.01,2013-03-04 04:57:00,
2013-03-03 21:00:00,57.0,36.4,29.91,NW,315,2.0,7.0,46,0.00,,---,0.00,VWS V14.01,2013-03-04 05:00:00,
2013-03-03 21:05:00,56.9,36.9,29.91,West,279,1.0,7.0,47,0.00,,---,0.00,VWS V14.01,2013-03-04 05:05:00,
2013-03-03 21:10:00,56.8,37.3,29.91,West,262,1.0,7.0,48,0.00,,---,0.00,VWS V14.01,2013-03-04 05:10:00,
2013-03-03 21:15:00,56.6,37.7,29.91,SW,235,3.0,7.0,49,0.00,,---,0.00,VWS V14.01,2013-03-04 05:15:00,
2013-03-03 21:20:00,56.5,38.1,29.92,WNW,284,2.0,7.0,50,0.00,,---,0.00,VWS V14.01,2013-03-04 05:20:00,
2013-03-03 21:25:00,56.3,38.4,29.92,West,262,1.0,7.0,51,0.00,,---,0.00,VWS V14.01,2013-03-04 05:25:00,
2013-03-03 21:30:00,56.1,38.7,29.91,SSW,203,3.0,7.0,52,0.00,,---,0.00,VWS V14.01,2013-03-04 05:30:00,
2013-03-03 21:35:00,55.8,39.4,29.91,WSW,246,1.0,7.0,54,0.00,,---,0.00,VWS V14.01,2013-03-04 05:35:00,
2013-03-03 21:40:00,55.4,39.5,29.91,SW,231,2.0,7.0,55,0.00,,---,0.00,VWS V14.01,2013-03-04 05:40:00,
2013-03-03 21:45:00,55.0,39.6,29.91,WSW,243,1.0,7.0,56,0.00,,---,0.00,VWS V14.01,2013-03-04 05:45:00,
2013-03-03 21:50:00,54.6,39.7,29.91,West,263,1.0,7.0,57,0.00,,---,0.00,VWS V14.01,2013-03-04 05:50:00,
2013-03-03 21:55:00,54.2,40.2,29.91,WNW,290,1.0,7.0,59,0.00,,---,0.00,VWS V14.01,2013-03-04 05:55:00,
2013-03-03 22:00:00,53.7,40.2,29.91,WNW,293,0.0,7.0,60,0.00,,---,0.00,VWS V14.01,2013-03-04 06:00:00,
2013-03-03 22:04:00,53.2,40.1,29.91,WNW,293,1.0,1.0,61,0.00,,---,0.00,VWS V14.01,2013-03-04 06:04:00,
2013-03-03 22:09:00,52.8,40.2,29.91,NNE,13,1.0,2.0,62,0.00,,---,0.00,VWS V14.01,2013-03-04 06:09:00,
2013-03-03 22:14:00,52.9,40.2,29.92,NNE,13,0.0,2.0,62,0.00,,---,0.00,VWS V14.01,2013-03-04 06:14:00,
2013-03-03 22:19:00,53.0,40.3,29.91,NNW,329,0.0,2.0,62,0.00,,---,0.00,VWS V14.01,2013-03-04 06:19:00,
2013-03-03 22:24:00,53.0,39.9,29.91,NNW,329,0.0,2.0,61,0.00,,---,0.00,VWS V14.01,2013-03-04 06:24:00,
2013-03-03 22:29:00,53.1,39.6,29.91,WSW,238,0.0,2.0,60,0.00,,---,0.00,VWS V14.01,2013-03-04 06:29:00,
2013-03-03 22:34:00,53.0,39.9,29.91,SE,131,0.0,2.0,61,0.00,,---,0.00,VWS V14.01,2013-03-04 06:34:00,
2013-03-03 22:39:00,52.8,39.7,29.91,SE,131,0.0,2.0,61,0.00,,---,0.00,VWS V14.01,2013-03-04 06:39:00,
2013-03-03 22:44:00,52.4,39.4,29.91,SSE,166,0.0,2.0,61,0.00,,---,0.00,VWS V14.01,2013-03-04 06:44:00,
2013-03-03 22:49:00,52.0,39.4,29.92,SSE,167,0.0,2.0,62,0.00,,---,0.00,VWS V14.01,2013-03-04 06:49:00,
2013-03-03 22:54:00,51.8,39.2,29.92,SSE,166,0.0,2.0,62,0.00,,---,0.00,VWS V14.01,2013-03-04 06:54:00,
2013-03-03 22:59:00,51.5,39.3,29.91,SSE,166,0.0,2.0,63,0.00,,---,0.00,VWS V14.01,2013-03-04 06:59:00,
2013-03-03 23:00:00,48.0,40.5,29.91,ESE,119,0.0,2.0,75,0.00,,---,0.00,VWS V14.01,2013-03-04 07:00:00,
2013-03-03 23:04:00,51.4,39.2,29.91,SSE,165,0.0,2.0,63,0.00,,---,0.00,VWS V14.01,2013-03-04 07:04:00,
2013-03-03 23:09:00,51.4,39.7,29.91,SSE,167,0.0,2.0,64,0.00,,---,0.00,VWS V14.01,2013-03-04 07:09:00,
2013-03-03 23:14:00,51.2,39.5,29.91,SSE,165,0.0,2.0,64,0.00,,---,0.00,VWS V14.01,2013-03-04 07:14:00,
2013-03-03 23:19:00,51.0,39.7,29.90,ESE,119,1.0,2.0,65,0.00,,---,0.00,VWS V14.01,2013-03-04 07:19:00,
2013-03-03 23:24:00,50.7,39.8,29.91,ESE,119,0.0,2.0,66,0.00,,---,0.00,VWS V14.01,2013-03-04 07:24:00,
2013-03-03 23:29:00,50.4,39.9,29.90,ESE,119,0.0,2.0,67,0.00,,---,0.00,VWS V14.01,2013-03-04 07:29:00,
2013-03-03 23:34:00,50.3,40.2,29.91,ESE,119,1.0,2.0,68,0.00,,---,0.00,VWS V14.01,2013-03-04 07:34:00,
2013-03-03 23:39:00,49.9,40.5,29.91,ESE,119,0.0,2.0,70,0.00,,---,0.00,VWS V14.01,2013-03-04 07:39:00,
2013-03-03 23:44:00,49.5,41.2,29.91,ESE,119,0.0,2.0,73,0.00,,---,0.00,VWS V14.01,2013-03-04 07:44:00,
2013-03-03 23:49:00,49.1,41.2,29.91,ESE,119,0.0,2.0,74,0.00,,---,0.00,VWS V14.01,2013-03-04 07:49:00,
2013-03-03 23:54:00,48.7,41.1,29.91,ESE,118,0.0,2.0,75,0.00,,---,0.00,VWS V14.01,2013-03-04 07:54:00,
2013-03-03 23:59:00,48.1,39.9,29.91,ESE,119,0.0,2.0,73,0.00,,---,0.00,VWS V14.01,2013-03-04 07:59:00,